Time;durP1;ratioP1;P1;durP2;ratioP2;P2;SDS_P1;SDS_P2;PMS_P1;PMS_P2;Temp;Humidity;BMP_temperature;BMP_pressure;BME280_temperature;BME280_humidity;BME280_pressure;Samples;Min_cycle;Max_cycle;Signal;HPM_P1;HPM_P2
2022/07/26 00:02:02;;;;;;;14.05;4.15;;;;;;;18.04;74.03;101249.28;4986419;28;20203;-68
2022/07/26 00:04:28;;;;;;;17.23;4.55;;;;;;;18.09;73.76;101249.31;4997097;28;20030;-68
2022/07/26 00:06:53;;;;;;;14.98;4.45;;;;;;;18.00;74.69;101245.41;4984681;28;20050;-68
2022/07/26 00:09:18;;;;;;;14.05;3.88;;;;;;;17.99;74.67;101252.03;5003833;28;20392;-68
2022/07/26 00:11:44;;;;;;;16.65;4.30;;;;;;;18.01;74.23;101255.41;5005631;28;20297;-68
2022/07/26 00:14:10;;;;;;;17.55;4.80;;;;;;;18.00;74.77;101250.13;5004619;28;20029;-68
2022/07/26 00:16:36;;;;;;;17.05;4.25;;;;;;;17.96;74.41;101252.59;5000354;28;20488;-68
2022/07/26 00:19:03;;;;;;;17.98;5.22;;;;;;;17.95;75.06;101245.38;5003346;28;20022;-68
2022/07/26 00:21:29;;;;;;;18.42;4.63;;;;;;;17.95;75.47;101250.09;4996485;28;20026;-68
2022/07/26 00:23:55;;;;;;;18.38;5.03;;;;;;;18.01;74.82;101251.78;4988856;28;20042;-68
2022/07/26 00:26:21;;;;;;;16.70;5.10;;;;;;;17.91;75.46;101252.56;4985491;28;20026;-68
2022/07/26 00:28:46;;;;;;;14.43;5.45;;;;;;;17.94;75.38;101252.00;4987770;28;20414;-69
2022/07/26 00:31:12;;;;;;;16.52;5.55;;;;;;;17.86;75.46;101258.94;4994696;28;20030;-69
2022/07/26 00:33:38;;;;;;;15.40;5.25;;;;;;;17.82;75.66;101252.25;5009594;28;20064;-69
2022/07/26 00:36:03;;;;;;;17.83;6.25;;;;;;;17.84;75.25;101257.50;5008138;28;20026;-69
2022/07/26 00:38:29;;;;;;;19.38;6.18;;;;;;;17.79;75.63;101260.25;5004650;28;20484;-69
2022/07/26 00:40:54;;;;;;;19.98;5.72;;;;;;;17.77;75.88;101259.72;4989412;28;20038;-69
2022/07/26 00:43:19;;;;;;;20.00;6.13;;;;;;;17.78;75.72;101264.16;5015608;28;20536;-69
2022/07/26 00:45:44;;;;;;;19.48;6.57;;;;;;;17.75;75.68;101261.94;4993150;28;20030;-70
2022/07/26 00:48:10;;;;;;;17.70;5.97;;;;;;;17.76;75.68;101266.38;4990416;28;20088;-70
2022/07/26 00:50:35;;;;;;;19.50;6.18;;;;;;;17.72;76.45;101266.03;4997708;28;20409;-69
2022/07/26 00:53:00;;;;;;;20.27;6.13;;;;;;;17.67;76.60;101262.41;4992819;28;20036;-70
2022/07/26 00:55:26;;;;;;;18.08;5.97;;;;;;;17.69;76.72;101262.94;5006440;28;20057;-69
2022/07/26 00:57:51;;;;;;;20.25;6.45;;;;;;;17.66;77.45;101258.78;5007882;28;20060;-70
2022/07/26 01:00:20;;;;;;;21.23;6.35;;;;;;;17.69;77.05;101260.16;5005499;28;20030;-69
2022/07/26 01:02:46;;;;;;;20.05;5.70;;;;;;;17.66;77.08;101252.38;5009153;28;20037;-70
2022/07/26 01:05:12;;;;;;;18.50;5.93;;;;;;;17.67;77.26;101257.66;4992816;28;20030;-70
2022/07/26 01:07:38;;;;;;;24.55;6.30;;;;;;;17.66;77.26;101253.22;4991856;28;20038;-69
2022/07/26 01:10:06;;;;;;;21.38;5.80;;;;;;;17.66;78.03;101255.16;5004683;28;20038;-70
2022/07/26 01:12:31;;;;;;;18.60;6.20;;;;;;;17.62;78.19;101252.91;5016153;23;20065;-70
2022/07/26 01:14:56;;;;;;;18.42;6.72;;;;;;;17.62;77.97;101252.91;5067052;28;20474;-70
2022/07/26 01:17:22;;;;;;;18.42;6.60;;;;;;;17.61;77.67;101254.03;5068068;28;20040;-69
2022/07/26 01:19:47;;;;;;;17.25;7.03;;;;;;;17.62;77.45;101249.31;5068197;28;20021;-69
2022/07/26 01:22:12;;;;;;;21.73;5.60;;;;;;;17.61;78.04;101248.47;5065208;28;20530;-70
2022/07/26 01:24:38;;;;;;;19.40;6.30;;;;;;;17.61;77.78;101242.91;5066146;28;20024;-69
2022/07/26 01:27:04;;;;;;;21.52;6.07;;;;;;;17.58;78.12;101250.94;5064712;28;20183;-70
2022/07/26 01:29:29;;;;;;;19.42;6.43;;;;;;;17.61;78.69;101254.03;5057224;28;20135;-69
2022/07/26 01:31:55;;;;;;;18.52;5.88;;;;;;;17.61;79.36;101253.19;5058629;28;20107;-70
2022/07/26 01:34:20;;;;;;;22.17;5.95;;;;;;;17.63;79.53;101250.97;5067421;28;20363;-69
2022/07/26 01:36:45;;;;;;;23.23;6.20;;;;;;;17.60;79.71;101251.53;5066603;28;20037;-69
2022/07/26 01:39:11;;;;;;;16.17;6.20;;;;;;;17.57;80.16;101247.31;5066000;28;20028;-69
2022/07/26 01:41:36;;;;;;;23.83;6.72;;;;;;;17.57;79.90;101246.50;5060721;28;20103;-69
2022/07/26 01:44:02;;;;;;;15.95;6.20;;;;;;;17.51;80.29;101244.78;5061891;28;20108;-69
2022/07/26 01:46:27;;;;;;;19.80;6.47;;;;;;;17.50;80.38;101248.69;5057821;28;20076;-69
2022/07/26 01:48:53;;;;;;;23.08;6.43;;;;;;;17.51;80.73;101248.41;5070000;28;20068;-69
2022/07/26 01:51:18;;;;;;;20.20;6.20;;;;;;;17.46;80.85;101251.16;5078579;28;20028;-69
2022/07/26 01:53:44;;;;;;;20.58;6.15;;;;;;;17.44;80.81;101258.09;5065959;28;20120;-69
2022/07/26 01:56:11;;;;;;;26.15;7.65;;;;;;;17.47;81.28;101257.53;5064417;28;20107;-69
2022/07/26 01:58:36;;;;;;;15.57;6.35;;;;;;;17.48;80.99;101254.47;5066880;28;20029;-69
2022/07/26 02:01:01;;;;;;;23.92;7.13;;;;;;;17.49;81.48;101253.41;5064767;28;20132;-69
2022/07/26 02:03:26;;;;;;;20.05;6.68;;;;;;;17.49;81.20;101261.72;5065722;28;20025;-69
2022/07/26 02:05:52;;;;;;;15.98;6.43;;;;;;;17.51;81.11;101258.69;5063742;28;20020;-69
2022/07/26 02:08:17;;;;;;;24.77;6.70;;;;;;;17.51;81.05;101259.50;5067248;28;20016;-69
2022/07/26 02:11:01;;;;;;;21.30;7.13;;;;;;;17.49;81.61;101253.41;5064755;28;20140;-69
2022/07/26 02:13:30;;;;;;;22.90;6.78;;;;;;;17.50;81.82;101262.56;5046672;28;20056;-69
2022/07/26 02:15:57;;;;;;;19.45;6.72;;;;;;;17.49;81.68;101261.72;5055324;28;20119;-69
2022/07/26 02:18:23;;;;;;;26.20;7.27;;;;;;;17.46;81.75;101264.19;5066787;28;20026;-69
2022/07/26 02:20:48;;;;;;;24.05;7.45;;;;;;;17.46;82.39;101259.47;5065589;28;20017;-70
2022/07/26 02:23:13;;;;;;;22.47;7.87;;;;;;;17.43;82.06;101257.22;5066324;28;20074;-69
2022/07/26 02:25:39;;;;;;;19.17;7.20;;;;;;;17.43;82.85;101256.38;5063224;28;20305;-69
2022/07/26 02:28:05;;;;;;;27.55;8.27;;;;;;;17.43;83.29;101246.13;5066285;28;20749;-69
2022/07/26 02:30:30;;;;;;;29.35;9.30;;;;;;;17.44;83.19;101252.53;5065189;28;20127;-69
2022/07/26 02:32:55;;;;;;;25.58;8.25;;;;;;;17.42;83.21;101269.44;5066096;28;20414;-69
2022/07/26 02:35:20;;;;;;;26.98;9.05;;;;;;;17.47;83.32;101263.91;5062454;28;20017;-69
2022/07/26 02:37:46;;;;;;;28.20;8.57;;;;;;;17.43;83.67;101273.88;5066886;28;20032;-69
2022/07/26 02:40:11;;;;;;;27.92;9.02;;;;;;;17.45;83.41;101274.47;5064987;28;20475;-69
2022/07/26 02:42:37;;;;;;;26.42;8.82;;;;;;;17.44;83.60;101280.31;5065720;28;20077;-69
2022/07/26 02:45:02;;;;;;;34.33;9.13;;;;;;;17.42;84.20;101272.22;5063933;28;20021;-69
2022/07/26 02:47:28;;;;;;;32.35;9.55;;;;;;;17.43;84.48;101279.44;5065289;28;20530;-69
2022/07/26 02:49:53;;;;;;;33.67;9.48;;;;;;;17.40;84.19;101279.16;5065683;28;20032;-69
2022/07/26 02:52:19;;;;;;;27.30;9.93;;;;;;;17.40;84.87;101280.00;5064774;28;20520;-69
2022/07/26 02:54:45;;;;;;;34.40;9.98;;;;;;;17.37;84.69;101277.72;5063682;28;20347;-69
2022/07/26 02:57:12;;;;;;;35.50;9.95;;;;;;;17.38;85.17;101276.63;5064523;28;20044;-69
2022/07/26 02:59:37;;;;;;;36.28;10.65;;;;;;;17.39;85.21;101283.88;5064935;28;20060;-69
2022/07/26 03:02:03;;;;;;;28.75;10.68;;;;;;;17.35;85.14;101280.78;5061558;28;20101;-69
2022/07/26 03:04:29;;;;;;;29.73;11.32;;;;;;;17.35;85.69;101288.28;5061293;28;20021;-69
2022/07/26 03:06:54;;;;;;;30.35;11.32;;;;;;;17.32;85.62;101288.78;5063831;28;20038;-69
2022/07/26 03:09:19;;;;;;;32.20;10.95;;;;;;;17.27;85.70;101286.81;5064827;28;20024;-69
2022/07/26 03:11:45;;;;;;;38.63;10.90;;;;;;;17.30;85.79;101291.00;5065278;28;20036;-69
2022/07/26 03:14:10;;;;;;;38.88;11.05;;;;;;;17.27;86.02;101292.34;5063213;28;20111;-69
2022/07/26 03:16:35;;;;;;;34.92;10.48;;;;;;;17.25;86.24;101299.28;5064689;28;20060;-69
2022/07/26 03:19:00;;;;;;;33.08;10.60;;;;;;;17.27;85.99;101294.31;5065269;28;20029;-69
2022/07/26 03:21:26;;;;;;;33.03;11.50;;;;;;;17.21;86.58;101298.13;5062912;28;20076;-69
2022/07/26 03:23:52;;;;;;;37.30;11.23;;;;;;;17.20;86.72;101300.09;5064393;28;20455;-69
2022/07/26 03:26:18;;;;;;;33.72;11.70;;;;;;;17.16;86.95;101301.69;5065681;28;20078;-69
2022/07/26 03:28:43;;;;;;;37.55;11.57;;;;;;;17.17;87.26;101302.53;5064814;28;20043;-69
2022/07/26 03:31:09;;;;;;;35.92;11.18;;;;;;;17.20;87.31;101307.56;5063659;28;20036;-69
2022/07/26 03:33:34;;;;;;;34.05;11.13;;;;;;;17.16;87.09;101307.25;5062985;28;20029;-69
2022/07/26 03:36:00;;;;;;;36.88;11.57;;;;;;;17.18;87.48;101307.81;5062816;28;20025;-69
2022/07/26 03:38:25;;;;;;;37.42;11.30;;;;;;;17.24;86.73;101314.28;5063967;28;20013;-69
2022/07/26 03:40:51;;;;;;;31.50;11.20;;;;;;;17.16;87.28;101315.59;5062262;28;20479;-69
2022/07/26 03:43:18;;;;;;;36.05;11.88;;;;;;;17.12;87.36;101318.03;5063659;28;20070;-69
2022/07/26 03:45:43;;;;;;;31.50;11.30;;;;;;;17.08;87.22;101321.59;5065160;28;20356;-69
2022/07/26 03:48:08;;;;;;;40.17;11.20;;;;;;;17.04;87.56;101332.41;5064120;28;20025;-69
2022/07/26 03:50:34;;;;;;;36.83;11.07;;;;;;;17.02;88.10;101331.81;5063326;28;20044;-69
2022/07/26 03:52:59;;;;;;;27.85;10.75;;;;;;;17.04;88.22;101331.56;5062897;28;20471;-69
2022/07/26 03:58:08;;;;;;;30.73;9.40;;;;;;;17.05;88.72;101319.38;5060581;28;20047;-70
2022/07/26 04:00:33;;;;;;;27.35;10.25;;;;;;;17.08;88.61;101318.81;5057417;28;20036;-69
2022/07/26 04:02:58;;;;;;;22.00;9.10;;;;;;;17.07;88.45;101323.53;5062081;28;20033;-69
2022/07/26 04:05:24;;;;;;;27.73;8.90;;;;;;;17.08;88.68;101336.34;5062796;28;20071;-69
2022/07/26 04:07:49;;;;;;;24.08;8.55;;;;;;;17.10;88.87;101330.53;5063195;28;20032;-69
2022/07/26 04:10:15;;;;;;;22.63;8.27;;;;;;;17.11;88.79;101338.56;5061865;28;20040;-69
2022/07/26 04:12:40;;;;;;;20.13;7.55;;;;;;;17.12;88.67;101334.69;5063693;28;20055;-69
2022/07/26 04:15:06;;;;;;;22.63;7.57;;;;;;;17.15;89.07;101338.91;5063563;28;20105;-69
2022/07/26 04:17:41;;;;;;;23.92;7.93;;;;;;;17.18;88.74;101338.34;5063104;28;20371;-69
2022/07/26 04:20:09;;;;;;;22.38;7.22;;;;;;;17.21;88.70;101331.44;5061376;28;20024;-69
2022/07/26 04:22:35;;;;;;;24.23;6.80;;;;;;;17.22;88.67;101330.34;5064438;28;20427;-68
2022/07/26 04:25:02;;;;;;;21.52;6.38;;;;;;;17.22;88.68;101331.19;5064160;28;20692;-69
2022/07/26 04:27:27;;;;;;;21.55;6.53;;;;;;;17.24;88.56;101342.03;5063987;28;20055;-69
2022/07/26 04:29:53;;;;;;;18.05;6.00;;;;;;;17.29;88.55;101336.53;5062429;28;20025;-69
2022/07/26 04:32:18;;;;;;;16.67;6.63;;;;;;;17.30;88.74;101346.53;5064523;28;20157;-69
2022/07/26 04:34:43;;;;;;;16.05;6.00;;;;;;;17.30;88.48;101341.81;5064402;28;20028;-69
2022/07/26 04:37:09;;;;;;;17.48;6.60;;;;;;;17.32;88.33;101349.88;5062754;28;20033;-69
2022/07/26 04:39:34;;;;;;;15.70;5.53;;;;;;;17.33;88.59;101351.53;5057737;28;20021;-67
2022/07/26 04:41:59;;;;;;;19.08;5.82;;;;;;;17.31;88.40;101348.19;5057972;28;20040;-67
2022/07/26 04:44:25;;;;;;;15.38;5.75;;;;;;;17.30;88.28;101352.09;5060654;28;20060;-68
2022/07/26 04:46:50;;;;;;;14.98;5.60;;;;;;;17.28;88.14;101349.56;5063625;28;20225;-67
2022/07/26 04:49:15;;;;;;;15.95;5.38;;;;;;;17.28;87.91;101366.22;5062736;28;20626;-67
2022/07/26 04:51:40;;;;;;;16.38;5.50;;;;;;;17.23;88.18;101357.00;5061989;28;20036;-67
2022/07/26 04:54:06;;;;;;;17.33;5.97;;;;;;;17.22;88.63;101356.16;5062724;28;20071;-68
2022/07/26 04:56:31;;;;;;;18.45;5.40;;;;;;;17.19;88.50;101361.44;5063571;28;20279;-68
2022/07/26 04:58:56;;;;;;;16.80;5.93;;;;;;;17.16;89.20;101357.22;5062434;28;20036;-68
2022/07/26 05:01:22;;;;;;;15.50;5.90;;;;;;;17.14;89.05;101359.44;5063495;28;20098;-68
2022/07/26 05:03:47;;;;;;;18.00;6.18;;;;;;;17.16;89.08;101364.72;5055167;28;20017;-68
2022/07/26 05:06:12;;;;;;;15.43;5.77;;;;;;;17.14;89.48;101366.94;5054205;28;20052;-68
2022/07/26 05:08:37;;;;;;;18.83;6.28;;;;;;;17.16;89.22;101371.09;5061449;28;20282;-68
2022/07/26 05:11:03;;;;;;;19.67;6.93;;;;;;;17.16;89.37;101370.25;5062842;28;20620;-68
2022/07/26 05:13:28;;;;;;;17.75;6.57;;;;;;;17.15;89.32;101368.59;5063914;28;20074;-68
2022/07/26 05:15:53;;;;;;;21.30;7.30;;;;;;;17.18;89.37;101371.66;5062945;28;20025;-68
2022/07/26 05:18:19;;;;;;;19.42;6.20;;;;;;;17.20;89.06;101375.03;5066159;28;20036;-68
2022/07/26 05:20:44;;;;;;;18.90;7.38;;;;;;;17.18;89.40;101382.75;5065422;28;20025;-68
2022/07/26 05:23:10;;;;;;;20.00;7.63;;;;;;;17.20;89.14;101382.53;5065483;28;20510;-68
2022/07/26 05:25:36;;;;;;;22.60;7.57;;;;;;;17.23;89.23;101384.75;5067616;28;20078;-69
2022/07/26 05:28:02;;;;;;;18.15;7.38;;;;;;;17.25;89.13;101394.53;5066326;28;20589;-68
2022/07/26 05:30:27;;;;;;;17.50;7.55;;;;;;;17.27;89.39;101386.75;5065907;28;20025;-69
2022/07/26 05:32:52;;;;;;;18.90;7.45;;;;;;;17.33;88.71;101388.47;5065592;28;20082;-68
2022/07/26 05:35:18;;;;;;;19.92;7.70;;;;;;;17.33;89.19;101388.47;5066705;28;20067;-68
2022/07/26 05:37:43;;;;;;;19.25;8.32;;;;;;;17.36;89.05;101389.91;5065935;28;20102;-68
2022/07/26 05:40:09;;;;;;;17.33;8.18;;;;;;;17.38;89.24;101387.69;5060194;28;20036;-68
2022/07/26 05:42:35;;;;;;;24.10;8.15;;;;;;;17.40;89.72;101388.28;5065650;28;20032;-68
2022/07/26 05:45:00;;;;;;;22.90;8.73;;;;;;;17.41;89.30;101389.94;5060315;28;20032;-68
2022/07/26 05:47:26;;;;;;;20.55;8.18;;;;;;;17.45;89.37;101396.66;5062229;28;20024;-68
2022/07/26 05:49:51;;;;;;;17.63;9.13;;;;;;;17.48;88.84;101386.94;5065363;28;20040;-68
2022/07/26 05:52:16;;;;;;;18.27;8.40;;;;;;;17.50;88.83;101401.44;5067324;28;20044;-68
2022/07/26 05:54:42;;;;;;;20.70;9.10;;;;;;;17.51;88.44;101392.81;5063234;28;20422;-68
2022/07/26 05:57:07;;;;;;;20.27;8.90;;;;;;;17.61;87.37;101398.47;5063127;28;20285;-68
2022/07/26 05:59:32;;;;;;;19.95;9.07;;;;;;;17.63;87.51;101406.53;5064840;28;20021;-69
2022/07/26 06:01:58;;;;;;;20.73;8.65;;;;;;;17.71;86.54;101399.66;5064009;28;20025;-68
2022/07/26 06:04:25;;;;;;;18.15;8.35;;;;;;;17.72;86.44;101407.72;5065427;28;20199;-68
2022/07/26 06:06:51;;;;;;;18.08;8.45;;;;;;;17.76;86.92;101413.63;5062842;28;20017;-67
2022/07/26 06:09:16;;;;;;;18.48;8.18;;;;;;;17.79;86.41;101411.16;5067095;28;20036;-68
2022/07/26 06:11:41;;;;;;;20.02;8.52;;;;;;;17.83;85.81;101406.72;5066702;28;20156;-68
2022/07/26 06:14:07;;;;;;;19.50;8.45;;;;;;;17.90;86.14;101406.53;5066336;28;20045;-68
2022/07/26 06:16:32;;;;;;;19.55;8.75;;;;;;;17.97;86.53;101414.63;5065080;28;20028;-68
2022/07/26 06:18:57;;;;;;;18.63;8.23;;;;;;;18.02;85.04;101406.31;5066451;28;20028;-68
2022/07/26 06:21:23;;;;;;;19.45;7.20;;;;;;;18.09;85.30;101415.25;5065788;28;20153;-68
2022/07/26 06:23:48;;;;;;;20.52;8.88;;;;;;;18.18;84.49;101421.16;5066764;28;20077;-68
2022/07/26 06:26:13;;;;;;;16.80;8.25;;;;;;;18.21;83.95;101423.44;5065058;28;20379;-69
2022/07/26 06:28:39;;;;;;;18.42;9.15;;;;;;;18.28;84.02;101424.00;5064619;28;20048;-68
2022/07/26 06:31:04;;;;;;;18.77;8.60;;;;;;;18.40;83.13;101425.50;5065624;28;20097;-69
2022/07/26 06:33:30;;;;;;;22.35;8.93;;;;;;;18.44;82.59;101423.00;5066141;28;20740;-68
2022/07/26 06:35:55;;;;;;;22.67;8.93;;;;;;;18.53;82.81;101415.81;5062369;28;20034;-69
2022/07/26 06:38:20;;;;;;;17.88;8.80;;;;;;;18.56;81.86;101423.63;5065982;28;20036;-69
2022/07/26 06:40:46;;;;;;;15.70;9.15;;;;;;;18.65;81.77;101424.81;5066518;28;20056;-68
2022/07/26 06:43:11;;;;;;;21.05;8.80;;;;;;;18.76;81.99;101427.66;5064533;28;20135;-68
2022/07/26 06:45:36;;;;;;;16.75;8.10;;;;;;;18.93;80.25;101428.28;5065260;28;20028;-68
2022/07/26 06:48:02;;;;;;;19.40;7.93;;;;;;;19.01;79.66;101433.34;5056395;28;20111;-69
2022/07/26 06:50:27;;;;;;;17.48;8.88;;;;;;;18.97;78.23;101432.19;5071048;28;20493;-68
2022/07/26 06:52:52;;;;;;;18.95;8.60;;;;;;;18.94;79.30;101435.53;5062470;28;20394;-69
2022/07/26 06:55:18;;;;;;;14.80;8.20;;;;;;;18.90;80.03;101440.78;5062291;28;20095;-69
2022/07/26 06:57:43;;;;;;;16.92;9.07;;;;;;;18.91;78.40;101434.13;5061954;28;20029;-69
2022/07/26 07:00:09;;;;;;;17.58;8.35;;;;;;;19.02;77.50;101457.28;5063136;28;20040;-69
2022/07/26 07:02:35;;;;;;;17.17;7.50;;;;;;;19.08;77.36;101447.84;5062760;28;20031;-69
2022/07/26 07:05:00;;;;;;;11.93;6.40;;;;;;;19.04;76.64;101452.25;5054583;28;20535;-69
2022/07/26 07:07:26;;;;;;;17.88;6.85;;;;;;;19.09;76.86;101449.50;5062006;28;20033;-68
2022/07/26 07:09:52;;;;;;;16.08;6.40;;;;;;;19.25;75.60;101455.13;5065627;28;20031;-69
2022/07/26 07:12:18;;;;;;;11.98;6.15;;;;;;;19.37;75.68;101442.63;5063900;28;20044;-69
2022/07/26 07:14:43;;;;;;;17.23;6.30;;;;;;;19.63;74.98;101451.06;5062184;28;20024;-69
2022/07/26 07:17:08;;;;;;;14.60;6.30;;;;;;;19.64;74.10;101456.34;5063281;28;20029;-68
2022/07/26 07:19:35;;;;;;;17.88;6.70;;;;;;;19.74;73.28;101449.13;5063879;28;20036;-69
2022/07/26 07:22:05;;;;;;;13.32;6.05;;;;;;;19.90;72.49;101457.19;5062575;28;20024;-68
2022/07/26 07:24:30;;;;;;;16.73;6.75;;;;;;;19.96;71.49;101453.28;5062776;28;20028;-70
2022/07/26 07:26:55;;;;;;;14.40;5.53;;;;;;;20.01;70.45;101451.63;5063398;28;20024;-69
2022/07/26 07:29:21;;;;;;;12.45;5.90;;;;;;;20.09;71.37;101448.28;5064687;28;20032;-69
2022/07/26 07:31:46;;;;;;;13.90;5.95;;;;;;;20.13;70.08;101455.00;5063068;28;20086;-69
2022/07/26 07:34:21;;;;;;;12.88;4.95;;;;;;;20.09;69.79;101453.88;5064372;28;20028;-69
2022/07/26 07:36:47;;;;;;;11.95;6.40;;;;;;;20.10;70.08;101450.78;5064335;28;20020;-68
2022/07/26 07:39:13;;;;;;;16.65;5.55;;;;;;;20.02;69.87;101454.16;5062934;28;20445;-69
2022/07/26 07:41:39;;;;;;;14.55;5.68;;;;;;;19.83;72.28;101464.19;5062064;28;20024;-68
2022/07/26 07:44:04;;;;;;;11.65;5.20;;;;;;;19.58;75.15;101476.94;5063714;28;20032;-69
2022/07/26 07:46:30;;;;;;;20.00;7.53;;;;;;;19.26;81.10;101481.84;5058661;28;20426;-68
2022/07/26 07:48:58;;;;;;;20.33;7.38;;;;;;;18.88;82.68;101483.94;5065047;28;20029;-68
2022/07/26 07:51:23;;;;;;;15.07;7.25;;;;;;;18.57;85.59;101486.50;5061032;28;20028;-67
2022/07/26 07:53:48;;;;;;;16.45;6.82;;;;;;;18.38;85.01;101490.84;5063005;28;20028;-68
2022/07/26 07:56:14;;;;;;;12.25;5.30;;;;;;;18.33;85.47;101493.56;5063982;28;20372;-68
2022/07/26 07:58:39;;;;;;;4.28;2.50;;;;;;;18.27;84.49;101494.66;5064524;28;20070;-67
2022/07/26 08:01:04;;;;;;;4.75;2.40;;;;;;;18.27;84.50;101494.66;5060453;28;20445;-68
2022/07/26 08:03:30;;;;;;;5.75;2.13;;;;;;;18.33;85.13;101499.13;5058641;28;20040;-68
2022/07/26 08:05:55;;;;;;;4.55;1.70;;;;;;;18.38;86.99;101505.56;5063587;28;20020;-68
2022/07/26 08:08:20;;;;;;;5.35;1.70;;;;;;;18.45;86.95;101498.94;5060620;28;20036;-68
2022/07/26 08:10:46;;;;;;;3.30;1.50;;;;;;;18.50;88.13;101510.09;5062365;28;20028;-69
2022/07/26 08:13:11;;;;;;;5.15;2.13;;;;;;;18.48;88.17;101515.94;5061162;28;20048;-69
2022/07/26 08:15:36;;;;;;;5.90;1.80;;;;;;;18.55;87.65;101513.78;5062514;28;20076;-69
2022/07/26 08:18:02;;;;;;;3.65;1.60;;;;;;;18.67;89.23;101517.19;5061567;28;20679;-68
2022/07/26 08:20:27;;;;;;;3.63;1.10;;;;;;;18.63;83.39;101513.25;5063071;28;20028;-69
2022/07/26 08:22:52;;;;;;;3.72;1.25;;;;;;;18.66;87.02;101512.72;5064850;28;20044;-70
2022/07/26 08:25:18;;;;;;;3.42;1.27;;;;;;;18.66;85.02;101521.06;5064376;28;20332;-69
2022/07/26 08:27:43;;;;;;;3.47;1.40;;;;;;;18.73;85.41;101531.16;5062672;28;20091;-70
2022/07/26 08:30:09;;;;;;;3.80;1.40;;;;;;;18.81;82.58;101527.88;5059478;28;20439;-69
2022/07/26 08:32:35;;;;;;;5.90;1.48;;;;;;;19.14;83.30;101532.22;5063021;28;20032;-69
2022/07/26 08:35:00;;;;;;;2.67;1.20;;;;;;;19.42;83.08;101530.94;5061521;28;20120;-68
2022/07/26 08:37:25;;;;;;;2.27;1.00;;;;;;;19.59;81.27;101523.22;5062291;28;20029;-69
2022/07/26 08:39:51;;;;;;;2.65;1.10;;;;;;;19.67;80.53;101527.44;5061730;28;20593;-68
2022/07/26 08:42:18;;;;;;;2.15;1.10;;;;;;;19.75;80.56;101538.03;5062070;28;20037;-69
2022/07/26 08:44:45;;;;;;;3.28;1.30;;;;;;;19.91;78.70;101534.16;5061837;28;20028;-69
2022/07/26 08:47:15;;;;;;;5.45;1.50;;;;;;;19.90;77.28;101545.59;5056878;28;20033;-69
2022/07/26 08:49:42;;;;;;;4.32;1.60;;;;;;;19.83;76.49;101550.59;5061969;28;20375;-69
2022/07/26 08:52:09;;;;;;;6.25;1.92;;;;;;;20.02;76.77;101550.88;5065724;28;20033;-69
2022/07/26 08:54:36;;;;;;;4.90;1.63;;;;;;;20.44;76.36;101548.69;5067931;28;20544;-69
2022/07/26 08:57:01;;;;;;;7.00;1.98;;;;;;;20.71;74.64;101550.38;5063559;28;20549;-69
2022/07/26 08:59:27;;;;;;;6.63;1.73;;;;;;;20.84;73.13;101555.38;5067836;28;20025;-69
2022/07/26 09:01:59;;;;;;;7.30;1.95;;;;;;;21.05;72.13;101555.31;5065347;28;20124;-69
2022/07/26 09:04:30;;;;;;;6.65;2.00;;;;;;;21.38;72.48;101549.06;5065680;28;20029;-69
2022/07/26 09:07:10;;;;;;;5.95;1.83;;;;;;;21.36;72.09;101564.47;5064320;28;20108;-69
2022/07/26 09:09:38;;;;;;;6.68;1.45;;;;;;;21.42;69.32;101552.97;5062051;28;20047;-69
2022/07/26 09:12:17;;;;;;;;;;;;;;;21.87;71.63;101562.22;5063274;28;20044;-69
2022/07/26 09:14:45;;;;;;;6.78;1.70;;;;;;;22.04;66.90;101561.84;5066578;28;19958;-69
2022/07/26 09:17:10;;;;;;;;;;;;;;;22.41;68.04;101568.88;5066161;28;20033;-70
2022/07/26 09:19:36;;;;;;;10.25;2.47;;;;;;;22.15;67.71;101566.28;5065459;28;19916;-69
2022/07/26 09:22:12;;;;;;;8.00;2.60;;;;;;;22.31;66.70;101566.16;5067936;28;20025;-69
2022/07/26 09:24:46;;;;;;;10.07;2.53;;;;;;;22.47;66.41;101571.34;5065063;28;20032;-69
2022/07/26 09:27:15;;;;;;;9.05;2.20;;;;;;;22.35;66.44;101576.47;5059531;28;20115;-69
2022/07/26 09:29:51;;;;;;;8.13;2.30;;;;;;;22.23;67.23;101576.84;5056443;28;20072;-69
2022/07/26 09:32:22;;;;;;;9.80;2.00;;;;;;;21.83;68.01;101588.25;5063054;28;20109;-69
2022/07/26 09:34:56;;;;;;;8.18;2.08;;;;;;;21.42;70.92;101582.88;5065223;28;20444;-69
2022/07/26 09:37:33;;;;;;;6.70;1.67;;;;;;;21.25;71.22;101591.56;5065418;28;20017;-69
2022/07/26 09:40:00;;;;;;;5.87;1.30;;;;;;;21.67;68.73;101588.34;5060403;28;20025;-69
2022/07/26 09:42:27;;;;;;;4.65;1.10;;;;;;;22.49;64.18;101588.66;5066989;28;20030;-69
2022/07/26 09:44:56;;;;;;;6.43;1.27;;;;;;;23.07;64.30;101589.84;5065266;28;20080;-69
2022/07/26 09:47:33;;;;;;;2.45;0.90;;;;;;;25.24;56.96;101581.22;5063542;28;20357;-68
2022/07/26 09:50:13;;;;;;;2.95;1.30;;;;;;;26.34;54.81;101586.66;5060919;28;20499;-69
2022/07/26 09:52:38;;;;;;;1.95;1.00;;;;;;;25.10;53.25;101581.22;5056932;28;20056;-69
2022/07/26 09:55:05;;;;;;;2.13;1.08;;;;;;;24.63;54.00;101590.75;5060478;28;20157;-70
2022/07/26 09:57:33;;;;;;;5.27;1.20;;;;;;;24.98;53.92;101596.88;5062271;28;20032;-68
2022/07/26 10:00:01;;;;;;;5.97;1.05;;;;;;;25.91;52.58;101596.72;5063785;28;20306;-68
2022/07/26 10:02:26;;;;;;;3.13;1.00;;;;;;;26.24;50.91;101598.16;5061617;28;20024;-69
2022/07/26 10:04:51;;;;;;;2.45;0.65;;;;;;;26.27;48.57;101594.72;5059789;28;20051;-69
2022/07/26 10:07:17;;;;;;;2.33;0.67;;;;;;;26.17;49.50;101599.78;5057965;28;20067;-69
2022/07/26 10:09:57;;;;;;;3.05;0.70;;;;;;;25.67;52.56;101605.38;5064862;28;20309;-69
2022/07/26 10:12:27;;;;;;;2.28;0.68;;;;;;;24.76;50.72;101608.81;5063960;28;20789;-69
2022/07/26 10:14:54;;;;;;;1.40;0.68;;;;;;;24.12;53.38;101601.94;5062663;28;20028;-68
2022/07/26 10:17:28;;;;;;;3.67;0.80;;;;;;;23.70;55.68;101610.13;5060273;28;20025;-69
2022/07/26 10:20:00;;;;;;;3.53;0.68;;;;;;;23.36;55.52;101615.00;5059339;28;20032;-69
2022/07/26 10:22:29;;;;;;;3.75;0.73;;;;;;;23.48;55.57;101607.03;5066092;28;20100;-68
2022/07/26 10:24:56;;;;;;;3.58;0.80;;;;;;;23.71;56.64;101623.00;5065200;28;20031;-69
2022/07/26 10:27:37;;;;;;;5.22;0.73;;;;;;;23.82;57.16;101615.28;5061961;28;20043;-68
2022/07/26 10:30:23;;;;;;;4.78;0.98;;;;;;;23.48;56.18;101607.84;5049055;28;20033;-69
2022/07/26 10:33:05;;;;;;;2.97;0.93;;;;;;;23.33;57.01;101615.63;5064111;28;20381;-69
2022/07/26 10:35:33;;;;;;;4.07;1.02;;;;;;;23.38;56.69;101616.38;5045344;28;20060;-68
2022/07/26 10:38:03;;;;;;;4.82;1.10;;;;;;;23.56;56.54;101617.56;5061052;28;20085;-69
2022/07/26 10:40:29;;;;;;;2.42;1.00;;;;;;;23.84;55.55;101615.00;5065892;28;20033;-69
2022/07/26 10:43:06;;;;;;;3.30;0.90;;;;;;;23.64;56.54;101616.09;5064785;28;20467;-68
2022/07/26 10:45:32;;;;;;;3.90;0.95;;;;;;;23.35;57.46;101616.97;5066178;28;20391;-69
2022/07/26 10:48:08;;;;;;;6.25;1.50;;;;;;;23.01;57.99;101626.31;5059847;28;20024;-69
2022/07/26 10:50:34;;;;;;;4.55;1.30;;;;;;;22.60;59.43;101625.81;5064688;28;20028;-69
2022/07/26 10:53:00;;;;;;;4.55;1.20;;;;;;;22.26;59.69;101628.59;5062266;28;20497;-69
2022/07/26 10:55:26;;;;;;;4.93;1.48;;;;;;;22.12;59.00;101627.56;5064507;28;20064;-68
2022/07/26 10:57:51;;;;;;;5.53;1.80;;;;;;;21.92;59.67;101623.72;5063771;28;20028;-69
2022/07/26 11:00:24;;;;;;;5.15;1.30;;;;;;;21.82;60.86;101631.34;5064531;28;20049;-68
2022/07/26 11:02:55;;;;;;;4.40;0.90;;;;;;;21.62;62.28;101638.69;5063014;28;20017;-68
2022/07/26 11:05:26;;;;;;;6.07;1.42;;;;;;;21.25;64.48;101639.91;5063152;28;20028;-68
2022/07/26 11:07:55;;;;;;;4.15;1.08;;;;;;;20.88;66.93;101650.56;5058758;28;20023;-69
2022/07/26 11:10:27;;;;;;;4.47;1.63;;;;;;;20.57;69.44;101658.94;5065424;28;20211;-69
2022/07/26 11:13:03;;;;;;;9.23;1.75;;;;;;;20.13;73.24;101667.78;5058741;28;20582;-68
2022/07/26 11:15:29;;;;;;;7.13;1.63;;;;;;;19.66;76.00;101681.81;5057801;28;20033;-69
2022/07/26 11:18:16;;;;;;;7.82;1.90;;;;;;;19.41;78.77;101682.47;5052189;28;20113;-69
2022/07/26 11:20:46;;;;;;;8.35;1.90;;;;;;;19.19;82.75;101683.47;5062814;28;20101;-69